Time;durP1;ratioP1;P1;durP2;ratioP2;P2;SDS_P1;SDS_P2;PMS_P1;PMS_P2;Temp;Humidity;BMP_temperature;BMP_pressure;BME280_temperature;BME280_humidity;BME280_pressure;Samples;Min_cycle;Max_cycle;Signal;HPM_P1;HPM_P2
2022/07/22 00:01:47;;;;;;;12.95;3.42;;;15.30;99.90;;;;;;5015455;28;20053;-71
2022/07/22 00:04:13;;;;;;;11.48;3.42;;;15.30;99.90;;;;;;5015771;28;20096;-71
2022/07/22 00:06:39;;;;;;;12.48;3.00;;;15.30;99.90;;;;;;5015431;28;20516;-71
2022/07/22 00:09:05;;;;;;;7.78;2.92;;;15.30;99.90;;;;;;4997868;28;20054;-72
2022/07/22 00:11:32;;;;;;;7.95;3.05;;;15.30;99.90;;;;;;4997622;28;20201;-72
2022/07/22 00:13:58;;;;;;;11.82;2.67;;;15.30;99.90;;;;;;5015340;28;20037;-72
2022/07/22 00:16:24;;;;;;;13.07;3.30;;;15.30;99.90;;;;;;4997860;28;20042;-72
2022/07/22 00:18:50;;;;;;;9.25;3.08;;;15.30;99.90;;;;;;4997647;28;20046;-72
2022/07/22 00:21:16;;;;;;;12.25;2.92;;;15.30;99.90;;;;;;4997728;28;20042;-73
2022/07/22 00:23:42;;;;;;;10.48;2.92;;;15.30;99.90;;;;;;4981223;28;20100;-73
2022/07/22 00:26:08;;;;;;;8.63;3.15;;;15.30;99.90;;;;;;5012895;28;20074;-73
2022/07/22 00:28:34;;;;;;;7.60;3.22;;;15.30;99.90;;;;;;5014796;28;20042;-72
2022/07/22 00:31:00;;;;;;;9.20;3.80;;;15.40;99.90;;;;;;5014790;28;20130;-73
2022/07/22 00:33:26;;;;;;;8.32;3.50;;;15.30;99.90;;;;;;4997285;28;20132;-72
2022/07/22 00:35:51;;;;;;;12.57;3.60;;;15.30;99.90;;;;;;4997501;28;20061;-72
2022/07/22 00:38:17;;;;;;;6.75;3.03;;;15.30;99.90;;;;;;4997275;28;20425;-72
2022/07/22 00:40:46;;;;;;;8.85;3.03;;;15.30;99.90;;;;;;5014718;28;20050;-72
2022/07/22 00:43:12;;;;;;;10.02;3.20;;;15.30;99.90;;;;;;4981122;28;20060;-71
2022/07/22 00:45:39;;;;;;;9.48;3.47;;;15.30;99.90;;;;;;4997363;28;20480;-70
2022/07/22 00:48:05;;;;;;;18.27;3.20;;;15.30;99.90;;;;;;5014673;28;20038;-72
2022/07/22 00:50:31;;;;;;;9.85;2.85;;;15.30;99.90;;;;;;5014759;28;20045;-72
2022/07/22 00:52:57;;;;;;;9.90;3.08;;;15.30;99.90;;;;;;4980700;28;20388;-72
2022/07/22 00:55:23;;;;;;;11.48;3.17;;;15.30;99.90;;;;;;4994952;28;20037;-73
2022/07/22 00:57:48;;;;;;;8.95;3.42;;;15.30;99.90;;;;;;4996762;28;20481;-73
2022/07/22 01:00:20;;;;;;;7.18;2.95;;;15.30;99.90;;;;;;4997113;28;20041;-73
2022/07/22 01:02:46;;;;;;;10.35;3.00;;;15.30;99.90;;;;;;5014135;28;20054;-73
2022/07/22 01:05:12;;;;;;;7.82;2.92;;;15.30;99.90;;;;;;5014461;28;20049;-73
2022/07/22 01:07:39;;;;;;;8.38;2.58;;;15.30;99.90;;;;;;4995995;28;20108;-73
2022/07/22 01:10:06;;;;;;;9.43;3.25;;;15.30;99.90;;;;;;4996832;28;20089;-72
2022/07/22 01:12:32;;;;;;;11.70;2.75;;;15.30;99.90;;;;;;5014148;28;20650;-72
2022/07/22 01:14:58;;;;;;;10.32;2.80;;;15.20;99.90;;;;;;4996624;28;20041;-73
2022/07/22 01:17:24;;;;;;;10.10;2.88;;;15.20;99.90;;;;;;5014265;28;20132;-72
2022/07/22 01:19:50;;;;;;;14.98;4.57;;;15.20;99.90;;;;;;5014027;28;20077;-73
2022/07/22 01:22:16;;;;;;;9.20;2.95;;;15.20;99.90;;;;;;4980075;28;20052;-73
2022/07/22 01:24:42;;;;;;;11.10;3.22;;;15.20;99.90;;;;;;5012371;28;20037;-72
2022/07/22 01:27:08;;;;;;;11.27;3.13;;;15.20;99.90;;;;;;4995615;28;20459;-73
2022/07/22 01:29:34;;;;;;;11.73;3.42;;;15.20;99.90;;;;;;5013808;28;20041;-73
2022/07/22 01:32:00;;;;;;;8.50;2.80;;;15.20;99.90;;;;;;4996470;28;20074;-73
2022/07/22 01:34:26;;;;;;;8.13;3.08;;;15.20;99.90;;;;;;4996502;28;20080;-74
2022/07/22 01:36:52;;;;;;;7.28;3.00;;;15.20;99.90;;;;;;4996296;28;20057;-74
2022/07/22 01:39:18;;;;;;;4.85;2.25;;;15.20;99.90;;;;;;4996210;28;20092;-74
2022/07/22 01:41:43;;;;;;;8.40;2.75;;;15.20;99.90;;;;;;4979983;28;20042;-74
2022/07/22 01:44:09;;;;;;;10.48;3.13;;;15.30;99.90;;;;;;4996289;28;20123;-74
2022/07/22 01:46:35;;;;;;;12.90;2.97;;;15.30;99.90;;;;;;4995957;28;20532;-74
2022/07/22 01:49:01;;;;;;;11.68;3.00;;;15.30;99.90;;;;;;5013507;28;20041;-74
2022/07/22 01:51:27;;;;;;;13.15;3.05;;;15.30;99.90;;;;;;5013388;28;20038;-74
2022/07/22 01:53:53;;;;;;;7.07;3.25;;;15.30;99.90;;;;;;4995835;28;20061;-74
2022/07/22 01:56:19;;;;;;;11.65;3.10;;;15.30;99.90;;;;;;5011247;28;20046;-73
2022/07/22 01:58:45;;;;;;;8.18;2.60;;;15.30;99.90;;;;;;4996128;28;20030;-74
2022/07/22 02:01:11;;;;;;;9.57;2.63;;;15.30;99.90;;;;;;4995835;28;20642;-74
2022/07/22 02:03:37;;;;;;;9.25;2.30;;;15.30;99.90;;;;;;4995712;28;20146;-74
2022/07/22 02:06:03;;;;;;;16.50;3.40;;;15.30;99.90;;;;;;4995747;28;20508;-74
2022/07/22 02:08:29;;;;;;;7.68;2.40;;;15.30;99.90;;;;;;4995511;28;20046;-74
2022/07/22 02:10:55;;;;;;;8.70;2.70;;;15.30;99.90;;;;;;5013124;28;20056;-74
2022/07/22 02:13:21;;;;;;;8.77;2.70;;;15.30;99.90;;;;;;5013434;28;20042;-74
2022/07/22 02:15:48;;;;;;;7.63;2.30;;;15.30;99.90;;;;;;5013180;28;20082;-74
2022/07/22 02:18:16;;;;;;;10.88;2.88;;;15.20;99.90;;;;;;5013072;28;20088;-74
2022/07/22 02:20:42;;;;;;;8.63;2.50;;;15.30;99.90;;;;;;5013160;28;20085;-74
2022/07/22 02:23:11;;;;;;;8.82;2.60;;;15.30;99.90;;;;;;4992046;28;20523;-74
2022/07/22 02:25:37;;;;;;;11.15;2.72;;;15.30;99.90;;;;;;4991148;28;20042;-74
2022/07/22 02:28:04;;;;;;;8.27;3.35;;;15.20;99.90;;;;;;4975900;28;20042;-74
2022/07/22 02:30:30;;;;;;;9.60;2.80;;;15.20;99.90;;;;;;4993515;28;20043;-74
2022/07/22 02:32:57;;;;;;;9.38;2.85;;;15.20;99.90;;;;;;4975701;28;20046;-74
2022/07/22 02:35:23;;;;;;;7.53;2.55;;;15.30;99.90;;;;;;4976245;28;20523;-74
2022/07/22 02:37:49;;;;;;;7.75;2.72;;;15.30;99.90;;;;;;4976133;28;20366;-74
2022/07/22 02:40:15;;;;;;;7.72;2.92;;;15.30;99.90;;;;;;4976076;28;20489;-74
2022/07/22 02:42:41;;;;;;;7.00;3.28;;;15.20;99.90;;;;;;4993441;28;20046;-74
2022/07/22 02:45:08;;;;;;;10.68;2.38;;;15.20;99.90;;;;;;4975787;28;20050;-74
2022/07/22 02:47:34;;;;;;;7.22;2.40;;;15.20;99.90;;;;;;4959558;28;20038;-74
2022/07/22 02:50:00;;;;;;;6.57;1.98;;;15.20;99.90;;;;;;4975789;28;20065;-74
2022/07/22 02:52:26;;;;;;;7.95;2.55;;;15.20;99.90;;;;;;4993183;28;20042;-74
2022/07/22 02:54:51;;;;;;;4.35;2.25;;;15.10;99.90;;;;;;4973668;28;20086;-74
2022/07/22 02:57:17;;;;;;;10.02;2.40;;;15.10;99.90;;;;;;4959861;28;20551;-74
2022/07/22 02:59:43;;;;;;;7.60;2.65;;;15.10;99.90;;;;;;4975450;28;20042;-74
2022/07/22 03:02:09;;;;;;;5.38;2.20;;;15.10;99.90;;;;;;4992969;28;20101;-73
2022/07/22 03:04:35;;;;;;;4.45;2.25;;;15.10;99.90;;;;;;4992953;28;20074;-74
2022/07/22 03:07:00;;;;;;;8.50;2.53;;;15.10;99.90;;;;;;4992794;28;20121;-73
2022/07/22 03:09:26;;;;;;;6.43;2.60;;;15.10;99.90;;;;;;4975358;28;20050;-74
2022/07/22 03:11:52;;;;;;;11.32;3.10;;;15.10;99.90;;;;;;4975543;28;20125;-74
2022/07/22 03:14:18;;;;;;;11.10;2.60;;;15.10;99.90;;;;;;4975692;28;20038;-73
2022/07/22 03:16:45;;;;;;;6.30;2.10;;;15.00;99.90;;;;;;4993069;28;20101;-73
2022/07/22 03:19:11;;;;;;;5.93;2.60;;;15.00;99.90;;;;;;4959290;28;20499;-73
2022/07/22 03:21:36;;;;;;;8.48;2.30;;;15.00;99.90;;;;;;4975417;28;20039;-74
2022/07/22 03:24:03;;;;;;;7.47;2.60;;;15.00;99.90;;;;;;4985663;28;20078;-74
2022/07/22 03:26:28;;;;;;;6.35;2.60;;;15.00;99.90;;;;;;5010253;28;20615;-74
2022/07/22 03:28:54;;;;;;;7.53;2.22;;;15.00;99.90;;;;;;4995105;28;20042;-73
2022/07/22 03:31:20;;;;;;;8.95;2.55;;;15.00;99.90;;;;;;5014820;28;20388;-73
2022/07/22 03:33:46;;;;;;;5.47;2.65;;;15.00;99.90;;;;;;4998465;28;20542;-71
2022/07/22 03:36:12;;;;;;;8.48;2.60;;;15.00;99.90;;;;;;5016046;28;20120;-73
2022/07/22 03:38:37;;;;;;;5.50;2.85;;;15.00;99.90;;;;;;4982414;28;20038;-72
2022/07/22 03:41:04;;;;;;;5.85;2.65;;;15.00;99.90;;;;;;4998688;28;20504;-73
2022/07/22 03:43:30;;;;;;;10.20;2.58;;;14.90;99.90;;;;;;4998258;28;20042;-73
2022/07/22 03:45:56;;;;;;;5.47;2.15;;;14.90;99.90;;;;;;4998534;28;20380;-73
2022/07/22 03:48:22;;;;;;;6.35;2.58;;;14.90;99.90;;;;;;4998427;28;20061;-74
2022/07/22 03:50:49;;;;;;;8.35;2.80;;;14.90;99.90;;;;;;4998201;28;20468;-73
2022/07/22 03:53:16;;;;;;;6.43;2.40;;;14.80;99.90;;;;;;4982180;28;20037;-72
2022/07/22 03:55:41;;;;;;;6.88;2.60;;;14.90;99.90;;;;;;4995842;28;20615;-72
2022/07/22 03:58:07;;;;;;;4.88;2.13;;;14.80;99.90;;;;;;4998099;28;20117;-71
2022/07/22 04:00:33;;;;;;;7.25;2.63;;;14.90;99.90;;;;;;4997877;28;20084;-73
2022/07/22 04:02:59;;;;;;;4.93;2.20;;;14.80;99.90;;;;;;5015563;28;20096;-72
2022/07/22 04:05:25;;;;;;;7.72;2.25;;;14.80;99.90;;;;;;4997831;28;20050;-73
2022/07/22 04:07:51;;;;;;;5.07;2.10;;;14.90;99.90;;;;;;4981583;28;20073;-74
2022/07/22 04:10:17;;;;;;;3.65;2.05;;;14.80;99.90;;;;;;4981418;28;20124;-74
2022/07/22 04:12:43;;;;;;;6.35;2.42;;;14.90;99.90;;;;;;5015505;28;20065;-74
2022/07/22 04:15:09;;;;;;;10.00;2.85;;;14.90;99.90;;;;;;4997974;28;20040;-73
2022/07/22 04:17:35;;;;;;;6.60;2.05;;;14.90;99.90;;;;;;4997926;28;20037;-74
2022/07/22 04:20:01;;;;;;;9.18;3.15;;;14.90;99.90;;;;;;4997706;28;20116;-74
2022/07/22 04:22:27;;;;;;;7.05;2.22;;;14.90;99.90;;;;;;5015092;28;20042;-74
2022/07/22 04:24:53;;;;;;;3.67;2.30;;;14.90;99.90;;;;;;4995307;28;20056;-74
2022/07/22 04:27:19;;;;;;;10.50;3.22;;;14.90;99.90;;;;;;5015373;28;20469;-74
2022/07/22 04:29:45;;;;;;;7.78;2.60;;;15.00;99.90;;;;;;5015031;28;20042;-65
2022/07/22 04:32:10;;;;;;;5.90;2.38;;;15.00;99.90;;;;;;4997407;28;20045;-65
2022/07/22 04:34:36;;;;;;;4.68;2.55;;;15.10;99.90;;;;;;5014909;28;20042;-65
2022/07/22 04:37:02;;;;;;;6.78;2.30;;;15.10;99.90;;;;;;5014836;28;20041;-65
2022/07/22 04:39:28;;;;;;;5.50;2.20;;;15.10;99.90;;;;;;5014962;28;20476;-65
2022/07/22 04:41:54;;;;;;;7.03;2.28;;;15.10;99.90;;;;;;4979880;28;20050;-65
2022/07/22 04:44:20;;;;;;;6.63;2.63;;;15.20;99.90;;;;;;5014898;28;20081;-65
2022/07/22 04:46:45;;;;;;;6.07;2.20;;;15.20;99.90;;;;;;4997481;28;20069;-65
2022/07/22 04:49:11;;;;;;;7.32;3.45;;;15.20;99.90;;;;;;4997128;28;20445;-65
2022/07/22 04:51:37;;;;;;;8.68;2.47;;;15.20;99.90;;;;;;4996833;28;20124;-65
2022/07/22 04:54:03;;;;;;;5.72;2.38;;;15.30;99.90;;;;;;4997011;28;20038;-65
2022/07/22 04:56:29;;;;;;;7.63;2.33;;;15.30;99.90;;;;;;4994687;28;20045;-65
2022/07/22 04:58:55;;;;;;;5.28;2.53;;;15.30;99.90;;;;;;4996988;28;20046;-65
2022/07/22 05:01:21;;;;;;;4.18;1.95;;;15.30;99.90;;;;;;5014430;28;20099;-65
2022/07/22 05:03:47;;;;;;;6.38;2.45;;;15.30;99.90;;;;;;4997089;28;20038;-65
2022/07/22 05:06:13;;;;;;;4.88;2.30;;;15.30;99.90;;;;;;4996635;28;20049;-65
2022/07/22 05:08:39;;;;;;;5.72;2.50;;;15.40;99.90;;;;;;4996273;28;20049;-65
2022/07/22 05:11:06;;;;;;;7.22;2.35;;;15.40;99.90;;;;;;4996518;28;20161;-65
2022/07/22 05:13:32;;;;;;;5.57;2.60;;;15.40;99.90;;;;;;5014364;28;20053;-65
2022/07/22 05:16:03;;;;;;;5.93;2.95;;;15.40;99.90;;;;;;4996580;28;20465;-65
2022/07/22 05:18:29;;;;;;;5.93;2.38;;;15.40;99.90;;;;;;4996715;28;20124;-65
2022/07/22 05:20:55;;;;;;;5.85;2.30;;;15.50;99.90;;;;;;4996522;28;20192;-65
2022/07/22 05:23:20;;;;;;;6.47;2.75;;;15.50;99.90;;;;;;4996415;28;20440;-65
2022/07/22 05:25:46;;;;;;;9.75;2.70;;;15.60;99.90;;;;;;4977956;28;20108;-65
2022/07/22 05:28:12;;;;;;;7.57;2.35;;;15.60;99.90;;;;;;4996518;28;20046;-65
2022/07/22 05:30:38;;;;;;;6.85;2.25;;;15.60;99.90;;;;;;4996263;28;20495;-65
2022/07/22 05:33:04;;;;;;;6.97;1.90;;;15.60;99.90;;;;;;4996216;28;20105;-65
2022/07/22 05:35:29;;;;;;;9.35;2.33;;;15.60;99.90;;;;;;4996262;28;20048;-65
2022/07/22 05:37:56;;;;;;;5.65;2.00;;;15.60;99.90;;;;;;4980216;28;20030;-65
2022/07/22 05:40:22;;;;;;;4.70;2.35;;;15.60;99.90;;;;;;4996119;28;20538;-65
2022/07/22 05:42:48;;;;;;;6.03;1.80;;;15.60;99.90;;;;;;4995972;28;20038;-65
2022/07/22 05:45:13;;;;;;;7.05;2.25;;;15.70;99.90;;;;;;4996094;28;20040;-65
2022/07/22 05:47:39;;;;;;;7.72;2.40;;;15.70;99.90;;;;;;5013571;28;20639;-65
2022/07/22 05:50:05;;;;;;;5.75;2.20;;;15.70;99.90;;;;;;4979576;28;20132;-65
2022/07/22 05:52:31;;;;;;;7.40;1.95;;;15.70;99.90;;;;;;4995865;28;20125;-65
2022/07/22 05:55:00;;;;;;;6.80;2.55;;;15.80;99.90;;;;;;4977552;28;20129;-65
2022/07/22 05:57:26;;;;;;;4.10;2.03;;;15.80;99.90;;;;;;4995780;28;20100;-65
2022/07/22 05:59:52;;;;;;;6.97;2.05;;;15.80;99.90;;;;;;4995685;28;20041;-65
2022/07/22 06:02:17;;;;;;;8.45;2.83;;;15.80;99.90;;;;;;4995938;28;20052;-65
2022/07/22 06:04:43;;;;;;;5.30;2.47;;;15.90;99.90;;;;;;4995727;28;20534;-65
2022/07/22 06:07:09;;;;;;;9.50;3.42;;;15.90;99.90;;;;;;4995451;28;20093;-65
2022/07/22 06:09:35;;;;;;;8.25;2.70;;;15.90;99.90;;;;;;4995634;28;20096;-64
2022/07/22 06:12:01;;;;;;;8.45;3.03;;;16.00;99.90;;;;;;4995421;28;20054;-65
2022/07/22 06:14:26;;;;;;;8.15;2.47;;;16.10;99.90;;;;;;5013166;28;20030;-65
2022/07/22 06:16:52;;;;;;;6.78;2.60;;;16.10;99.90;;;;;;4979592;28;20477;-65
2022/07/22 06:19:18;;;;;;;7.38;2.65;;;16.20;99.90;;;;;;5013111;28;20522;-64
2022/07/22 06:21:44;;;;;;;6.40;2.70;;;16.20;99.90;;;;;;5013253;28;20069;-65
2022/07/22 06:24:10;;;;;;;8.55;2.20;;;16.20;99.90;;;;;;4995236;28;20041;-65
2022/07/22 06:26:35;;;;;;;7.20;2.42;;;16.30;99.90;;;;;;5010645;28;20046;-65
2022/07/22 06:29:01;;;;;;;6.72;2.38;;;16.30;99.90;;;;;;4995503;28;20085;-65
2022/07/22 06:31:27;;;;;;;3.72;2.05;;;16.30;99.90;;;;;;5012813;28;20057;-65
2022/07/22 06:33:53;;;;;;;5.38;2.30;;;16.40;99.90;;;;;;4979445;28;20037;-65
2022/07/22 06:36:19;;;;;;;5.93;2.50;;;16.40;99.90;;;;;;4995439;28;20388;-65
2022/07/22 06:38:44;;;;;;;3.28;1.80;;;16.50;99.90;;;;;;4995351;28;20547;-65
2022/07/22 06:41:10;;;;;;;6.88;2.17;;;16.60;99.90;;;;;;5012755;28;20084;-65
2022/07/22 06:43:36;;;;;;;6.00;2.03;;;16.60;99.90;;;;;;4995271;28;20103;-65
2022/07/22 06:46:02;;;;;;;5.30;2.03;;;16.70;99.90;;;;;;5012765;28;20054;-65
2022/07/22 06:48:28;;;;;;;4.72;1.95;;;16.70;99.90;;;;;;4967395;28;20043;-65
2022/07/22 06:50:54;;;;;;;4.82;1.70;;;16.80;99.90;;;;;;4992541;28;20046;-65
2022/07/22 06:53:20;;;;;;;6.03;1.67;;;16.80;99.90;;;;;;4995014;28;20030;-65
2022/07/22 06:55:46;;;;;;;6.03;2.05;;;16.80;99.90;;;;;;4979731;28;20082;-65
2022/07/22 06:58:12;;;;;;;8.75;2.50;;;16.90;99.90;;;;;;4995344;28;20085;-65
2022/07/22 07:00:38;;;;;;;4.40;1.88;;;17.00;99.90;;;;;;4988813;28;20495;-65
2022/07/22 07:03:04;;;;;;;6.95;1.85;;;17.10;99.90;;;;;;5012465;28;20385;-65
2022/07/22 07:05:30;;;;;;;7.60;1.90;;;17.20;99.90;;;;;;5013635;28;20045;-65
2022/07/22 07:07:56;;;;;;;5.50;1.85;;;17.20;99.90;;;;;;4998687;28;20050;-65
2022/07/22 07:10:23;;;;;;;6.55;1.48;;;17.30;99.90;;;;;;4998636;28;20524;-66
2022/07/22 07:12:48;;;;;;;8.35;1.92;;;17.40;99.90;;;;;;4998612;28;20069;-65
2022/07/22 07:15:14;;;;;;;5.35;1.42;;;17.40;99.90;;;;;;4998646;28;20077;-64
2022/07/22 07:17:40;;;;;;;6.28;1.80;;;17.50;99.90;;;;;;5016192;28;20069;-65
2022/07/22 07:20:07;;;;;;;4.68;1.77;;;17.50;99.90;;;;;;4998675;28;20042;-65
2022/07/22 07:22:33;;;;;;;4.03;1.45;;;17.40;99.90;;;;;;5016426;28;20037;-64
2022/07/22 07:25:07;;;;;;;8.07;2.03;;;17.40;99.90;;;;;;4962191;28;20034;-64
2022/07/22 07:27:33;;;;;;;6.25;1.60;;;17.30;99.90;;;;;;4995199;28;20061;-64
2022/07/22 07:29:59;;;;;;;7.40;2.25;;;17.20;99.90;;;;;;4992708;28;20037;-64
2022/07/22 07:32:25;;;;;;;7.40;1.73;;;17.20;99.90;;;;;;4994609;28;20045;-65
2022/07/22 07:34:51;;;;;;;10.10;2.13;;;17.10;99.90;;;;;;4990010;28;20125;-64
2022/07/22 07:37:17;;;;;;;4.40;1.58;;;17.10;99.90;;;;;;4996129;28;20046;-64
2022/07/22 07:39:43;;;;;;;7.15;1.70;;;17.00;99.90;;;;;;4987624;28;20041;-64
2022/07/22 07:42:09;;;;;;;5.22;1.90;;;17.10;99.90;;;;;;4998432;28;20068;-64
2022/07/22 07:44:34;;;;;;;4.40;1.85;;;17.10;99.90;;;;;;4998421;28;20095;-65
2022/07/22 07:47:01;;;;;;;4.28;1.70;;;17.10;99.90;;;;;;4983073;28;20052;-64
2022/07/22 07:49:27;;;;;;;7.35;2.10;;;17.10;99.90;;;;;;5014540;28;20125;-64
2022/07/22 07:51:54;;;;;;;5.63;1.67;;;17.10;99.90;;;;;;4995016;28;20121;-64
2022/07/22 07:54:20;;;;;;;4.70;1.48;;;17.10;99.90;;;;;;4997524;28;20479;-64
2022/07/22 07:56:46;;;;;;;6.07;1.50;;;17.20;99.90;;;;;;5013001;28;20074;-64
2022/07/22 07:59:12;;;;;;;5.72;1.67;;;17.20;99.90;;;;;;4998079;28;20046;-64
2022/07/22 08:01:38;;;;;;;4.95;1.50;;;17.20;99.90;;;;;;4998021;28;20088;-64
2022/07/22 08:04:04;;;;;;;4.40;1.42;;;17.20;99.90;;;;;;4998024;28;20492;-64
2022/07/22 08:06:30;;;;;;;4.00;1.48;;;17.20;99.90;;;;;;4979059;28;20054;-65
2022/07/22 08:08:57;;;;;;;5.60;1.75;;;17.30;99.90;;;;;;4978195;28;20055;-64
2022/07/22 08:11:22;;;;;;;3.78;1.27;;;17.30;99.90;;;;;;4977935;28;20055;-64
2022/07/22 08:13:49;;;;;;;6.80;2.53;;;17.30;99.90;;;;;;4978257;28;20129;-64
2022/07/22 08:16:15;;;;;;;5.50;1.60;;;17.40;99.90;;;;;;4978223;28;20109;-64
2022/07/22 08:18:40;;;;;;;4.05;1.42;;;17.50;99.90;;;;;;4978314;28;20095;-64
2022/07/22 08:21:06;;;;;;;6.55;1.63;;;17.50;99.90;;;;;;4978098;28;20543;-64
2022/07/22 08:23:33;;;;;;;5.75;1.60;;;17.60;99.90;;;;;;4962112;28;20158;-64
2022/07/22 08:25:58;;;;;;;9.85;2.38;;;17.60;99.90;;;;;;4993366;28;20042;-64
2022/07/22 08:28:25;;;;;;;6.28;1.77;;;17.60;99.90;;;;;;4977945;28;20433;-64
2022/07/22 08:30:51;;;;;;;6.22;1.58;;;17.70;99.90;;;;;;4995362;28;20046;-64
2022/07/22 08:33:18;;;;;;;4.05;1.52;;;17.70;99.90;;;;;;4995385;28;20600;-64
2022/07/22 08:35:43;;;;;;;4.72;1.42;;;17.80;99.90;;;;;;5002761;28;20049;-64
2022/07/22 08:38:10;;;;;;;7.00;1.58;;;17.80;99.90;;;;;;5013693;28;20042;-64
2022/07/22 08:40:36;;;;;;;3.80;1.55;;;17.90;99.90;;;;;;5013771;28;20396;-64
2022/07/22 08:43:03;;;;;;;5.57;1.33;;;17.90;99.90;;;;;;4996169;28;20111;-64
2022/07/22 08:45:30;;;;;;;3.30;1.00;;;17.90;99.90;;;;;;4996521;28;20042;-64
2022/07/22 08:47:58;;;;;;;2.63;0.98;;;17.80;99.90;;;;;;4996039;28;20049;-64
2022/07/22 08:50:24;;;;;;;7.75;1.23;;;17.90;99.90;;;;;;5013756;28;20038;-64
2022/07/22 08:52:50;;;;;;;4.80;1.25;;;17.90;99.90;;;;;;5011282;28;20049;-64
2022/07/22 08:55:16;;;;;;;5.03;1.20;;;17.90;99.90;;;;;;4994233;28;20042;-64
2022/07/22 08:57:49;;;;;;;6.10;1.30;;;17.90;99.90;;;;;;4996190;28;20053;-63
2022/07/22 09:00:18;;;;;;;4.45;1.75;;;18.00;99.90;;;;;;5013435;28;20080;-63
2022/07/22 09:02:45;;;;;;;5.33;1.20;;;17.90;99.90;;;;;;4996860;28;20041;-63
2022/07/22 09:05:15;;;;;;;3.97;1.10;;;17.80;99.90;;;;;;5014019;28;20037;-63
2022/07/22 09:07:43;;;;;;;4.72;1.35;;;17.80;99.90;;;;;;4996115;28;20056;-63
2022/07/22 09:10:12;;;;;;;6.72;1.60;;;17.80;99.90;;;;;;5013967;28;20110;-63
2022/07/22 09:12:57;;;;;;;3.47;1.25;;;17.80;99.90;;;;;;4996422;28;20373;-64
2022/07/22 09:15:32;;;;;;;5.53;1.30;;;17.80;99.90;;;;;;4996251;28;20033;-63
2022/07/22 09:17:59;;;;;;;5.30;1.20;;;17.80;99.90;;;;;;4996314;28;20368;-63
2022/07/22 09:20:28;;;;;;;4.22;1.08;;;17.80;99.90;;;;;;4991129;28;20048;-63
2022/07/22 09:22:54;;;;;;;5.28;1.23;;;17.70;99.90;;;;;;4976003;28;20061;-62
2022/07/22 09:25:35;;;;;;;5.47;1.38;;;17.70;99.90;;;;;;4973772;28;20404;-63
2022/07/22 09:28:07;;;;;;;7.53;1.92;;;17.60;99.90;;;;;;4993398;28;20040;-63
2022/07/22 09:30:36;;;;;;;6.00;1.55;;;17.50;99.90;;;;;;4993760;28;20050;-63
2022/07/22 09:33:03;;;;;;;2.97;1.00;;;17.40;99.90;;;;;;4976657;28;20042;-62
2022/07/22 09:35:30;;;;;;;5.60;1.38;;;17.30;99.90;;;;;;4994376;28;20042;-63
2022/07/22 09:38:01;;;;;;;4.40;1.00;;;17.30;99.90;;;;;;4960382;28;20046;-63
2022/07/22 09:40:29;;;;;;;4.65;1.25;;;17.20;99.90;;;;;;4993425;28;20057;-63
2022/07/22 09:43:00;;;;;;;3.55;1.20;;;17.30;99.90;;;;;;4995986;28;20042;-63
2022/07/22 09:45:29;;;;;;;8.88;1.20;;;17.30;99.90;;;;;;4979937;28;20034;-63
2022/07/22 09:47:59;;;;;;;4.72;1.00;;;17.30;99.90;;;;;;5013375;28;20120;-63
2022/07/22 09:50:31;;;;;;;4.50;0.90;;;17.40;99.90;;;;;;4995913;28;20038;-63
2022/07/22 09:52:59;;;;;;;4.57;0.90;;;17.50;99.90;;;;;;5013576;28;20064;-63
2022/07/22 09:55:27;;;;;;;4.35;0.93;;;17.60;99.90;;;;;;5011271;28;20049;-63
2022/07/22 09:57:54;;;;;;;4.22;1.00;;;17.70;99.90;;;;;;4979646;28;20033;-63
2022/07/22 10:00:23;;;;;;;3.92;0.90;;;17.80;99.90;;;;;;5013001;28;20034;-63
2022/07/22 10:02:51;;;;;;;4.18;1.25;;;17.80;99.90;;;;;;5012883;28;20049;-64
2022/07/22 10:05:21;;;;;;;3.20;1.00;;;17.80;99.90;;;;;;4995834;28;20142;-65
2022/07/22 10:07:48;;;;;;;5.70;1.10;;;17.90;99.90;;;;;;4995028;28;20107;-63
2022/07/22 10:10:17;;;;;;;3.42;1.00;;;18.10;99.90;;;;;;5011480;28;20057;-62
2022/07/22 10:12:45;;;;;;;2.45;0.80;;;18.10;99.90;;;;;;5011844;28;20473;-63
2022/07/22 10:15:11;;;;;;;3.25;0.95;;;18.10;99.90;;;;;;4994088;28;20100;-63
2022/07/22 10:17:41;;;;;;;5.40;1.17;;;18.20;99.90;;;;;;4994527;28;20478;-63
2022/07/22 10:20:09;;;;;;;2.03;0.68;;;18.30;99.90;;;;;;4993886;28;20042;-63
2022/07/22 10:22:46;;;;;;;3.45;1.00;;;18.20;99.90;;;;;;4993993;28;20044;-63
2022/07/22 10:25:14;;;;;;;2.10;1.10;;;18.20;99.90;;;;;;4984766;28;20412;-63
2022/07/22 10:27:55;;;;;;;2.58;0.80;;;18.20;99.90;;;;;;4977569;28;20084;-63
2022/07/22 10:30:24;;;;;;;2.53;0.95;;;18.20;99.90;;;;;;5011383;28;20049;-63
2022/07/22 10:33:11;;;;;;;4.70;1.50;;;18.20;99.90;;;;;;4993880;28;20440;-63
2022/07/22 10:35:43;;;;;;;2.90;0.93;;;18.20;99.90;;;;;;5011262;28;20042;-62
2022/07/22 10:38:13;;;;;;;4.25;1.20;;;18.20;99.90;;;;;;4994002;28;20053;-62
2022/07/22 10:40:49;;;;;;;3.55;0.90;;;18.10;99.90;;;;;;4992040;28;20053;-63
2022/07/22 10:43:20;;;;;;;4.70;0.90;;;18.10;99.90;;;;;;4977246;28;20124;-63
2022/07/22 10:45:55;;;;;;;2.70;0.75;;;18.20;99.90;;;;;;4993832;28;20089;-64
2022/07/22 10:48:44;;;;;;;4.43;0.95;;;18.30;99.90;;;;;;5010996;28;20046;-64
2022/07/22 10:51:15;;;;;;;2.70;0.88;;;18.50;99.90;;;;;;5011190;28;20046;-64
2022/07/22 10:53:57;;;;;;;5.60;1.10;;;18.70;99.90;;;;;;4993588;28;20045;-63
2022/07/22 10:56:29;;;;;;;3.45;1.30;;;18.80;99.90;;;;;;5008633;28;20045;-64
2022/07/22 10:59:12;;;;;;;2.75;0.93;;;18.90;99.90;;;;;;4993373;28;20042;-62
2022/07/22 11:01:45;;;;;;;3.95;1.38;;;19.00;99.90;;;;;;4993384;28;20135;-63
2022/07/22 11:04:16;;;;;;;4.40;1.20;;;19.00;99.90;;;;;;4993453;28;20046;-62
2022/07/22 11:06:43;;;;;;;2.73;0.80;;;19.00;99.90;;;;;;4968086;28;1231743;-63
2022/07/22 11:09:12;;;;;;;3.92;0.77;;;19.00;99.90;;;;;;4977907;28;20053;-62
2022/07/22 11:11:47;;;;;;;2.28;1.00;;;19.00;99.90;;;;;;4994051;28;20042;-63
2022/07/22 11:14:20;;;;;;;2.70;0.80;;;18.90;99.90;;;;;;5011506;28;20563;-62
2022/07/22 11:16:48;;;;;;;4.97;1.05;;;18.80;99.90;;;;;;4994108;28;20041;-63
2022/07/22 11:19:19;;;;;;;1.33;0.70;;;18.70;99.90;;;;;;4994007;28;20038;-63
2022/07/22 11:21:50;;;;;;;2.65;0.80;;;18.50;99.90;;;;;;4994001;28;20038;-63
2022/07/22 11:24:16;;;;;;;1.42;0.85;;;18.40;99.90;;;;;;4993951;28;20046;-63
2022/07/22 11:26:45;;;;;;;3.40;0.70;;;18.30;99.90;;;;;;4975260;28;20049;-63
2022/07/22 11:29:25;;;;;;;1.98;0.63;;;18.30;99.90;;;;;;4994018;28;20104;-63
2022/07/22 11:31:51;;;;;;;1.80;0.57;;;18.20;99.90;;;;;;5011548;28;20073;-63
2022/07/22 11:34:17;;;;;;;2.38;0.75;;;18.20;99.90;;;;;;4977666;28;20495;-64
2022/07/22 11:36:45;;;;;;;2.90;0.60;;;18.10;99.90;;;;;;4977883;28;20038;-64
2022/07/22 11:39:13;;;;;;;0.73;0.43;;;18.10;99.90;;;;;;4993746;28;20069;-63
2022/07/22 11:41:39;;;;;;;2.42;0.88;;;18.10;99.90;;;;;;4977732;28;20526;-63
2022/07/22 11:44:06;;;;;;;2.05;0.77;;;18.10;99.90;;;;;;5011387;28;20041;-64
2022/07/22 11:46:38;;;;;;;3.17;1.05;;;18.10;99.90;;;;;;4977890;28;20133;-64
2022/07/22 11:49:04;;;;;;;5.10;1.02;;;18.10;99.90;;;;;;4993777;28;20042;-64
2022/07/22 11:51:32;;;;;;;2.03;0.90;;;18.20;99.90;;;;;;4994745;28;20049;-63
2022/07/22 11:53:58;;;;;;;3.35;0.80;;;18.20;99.90;;;;;;4997481;28;20132;-64
2022/07/22 11:56:25;;;;;;;2.63;0.60;;;18.20;99.90;;;;;;4995087;28;20084;-64
2022/07/22 11:58:55;;;;;;;2.22;0.93;;;18.20;99.90;;;;;;5014805;28;20048;-63
2022/07/22 12:01:30;;;;;;;1.60;0.80;;;18.30;99.90;;;;;;4996915;28;20567;-63
2022/07/22 12:04:00;;;;;;;2.08;0.80;;;18.30;99.90;;;;;;4997331;28;20371;-63
2022/07/22 12:06:27;;;;;;;3.60;0.80;;;18.20;99.90;;;;;;5014698;28;20501;-63
2022/07/22 12:09:08;;;;;;;2.60;0.60;;;18.30;99.90;;;;;;4996841;28;20367;-63
2022/07/22 12:11:44;;;;;;;6.18;1.10;;;18.30;99.90;;;;;;4997685;28;20050;-63
2022/07/22 12:14:16;;;;;;;2.78;0.70;;;18.40;99.90;;;;;;4981740;28;20060;-64
2022/07/22 12:16:44;;;;;;;1.50;0.50;;;18.40;99.90;;;;;;4997743;28;20042;-63
2022/07/22 12:19:13;;;;;;;2.78;0.70;;;18.40;99.90;;;;;;5015183;28;20084;-64
2022/07/22 12:22:03;;;;;;;2.40;0.90;;;18.40;99.90;;;;;;4997728;28;20117;-63
2022/07/22 12:24:35;;;;;;;2.75;0.90;;;18.40;99.90;;;;;;5015085;28;20104;-63
2022/07/22 12:27:09;;;;;;;1.67;0.80;;;18.40;99.90;;;;;;5012997;28;20060;-63
2022/07/22 12:29:37;;;;;;;1.60;0.60;;;18.40;99.90;;;;;;4997485;28;20042;-63
2022/07/22 12:32:18;;;;;;;3.00;0.88;;;18.30;99.90;;;;;;4997433;28;20432;-63
2022/07/22 12:34:57;;;;;;;1.58;0.65;;;18.30;99.90;;;;;;4997525;28;20112;-63
2022/07/22 12:37:27;;;;;;;3.15;0.60;;;18.30;99.90;;;;;;4994686;28;20073;-63
2022/07/22 12:40:06;;;;;;;2.13;0.98;;;18.40;99.90;;;;;;4992995;28;20045;-63
2022/07/22 12:42:41;;;;;;;5.07;1.20;;;18.40;99.90;;;;;;5014549;28;20476;-62
2022/07/22 12:45:08;;;;;;;2.33;1.00;;;18.50;99.90;;;;;;5014496;28;20053;-62
2022/07/22 12:47:55;;;;;;;3.88;0.85;;;18.60;99.90;;;;;;4997108;28;20492;-62